sensor_id;sensor_type;location;lat;lon;timestamp;P1;durP1;ratioP1;P2;durP2;ratioP2
69551;SDS011;63774;45.292;11.784;2023-07-02T00:00:02;9.00;;;5.50;;
69551;SDS011;63774;45.292;11.784;2023-07-02T00:02:30;7.70;;;5.40;;
69551;SDS011;63774;45.292;11.784;2023-07-02T00:04:55;7.90;;;5.60;;
69551;SDS011;63774;45.292;11.784;2023-07-02T00:07:21;7.10;;;5.30;;
69551;SDS011;63774;45.292;11.784;2023-07-02T00:09:46;6.90;;;5.20;;
69551;SDS011;63774;45.292;11.784;2023-07-02T00:12:13;7.40;;;5.50;;
69551;SDS011;63774;45.292;11.784;2023-07-02T00:14:38;7.10;;;5.60;;
69551;SDS011;63774;45.292;11.784;2023-07-02T00:17:04;9.70;;;5.70;;
69551;SDS011;63774;45.292;11.784;2023-07-02T00:19:29;7.30;;;5.80;;
69551;SDS011;63774;45.292;11.784;2023-07-02T00:21:55;7.00;;;5.80;;
69551;SDS011;63774;45.292;11.784;2023-07-02T00:24:21;7.90;;;6.00;;
69551;SDS011;63774;45.292;11.784;2023-07-02T00:26:46;7.20;;;5.40;;
69551;SDS011;63774;45.292;11.784;2023-07-02T00:29:11;7.50;;;5.70;;
69551;SDS011;63774;45.292;11.784;2023-07-02T00:31:37;7.80;;;5.50;;
69551;SDS011;63774;45.292;11.784;2023-07-02T00:34:02;7.80;;;6.00;;
69551;SDS011;63774;45.292;11.784;2023-07-02T00:36:29;8.40;;;6.00;;
69551;SDS011;63774;45.292;11.784;2023-07-02T00:38:55;7.30;;;5.80;;
69551;SDS011;63774;45.292;11.784;2023-07-02T00:41:21;7.50;;;5.50;;
69551;SDS011;63774;45.292;11.784;2023-07-02T00:43:46;8.40;;;6.00;;
69551;SDS011;63774;45.292;11.784;2023-07-02T00:46:16;8.10;;;5.90;;
69551;SDS011;63774;45.292;11.784;2023-07-02T00:48:46;7.90;;;6.10;;
69551;SDS011;63774;45.292;11.784;2023-07-02T00:51:16;7.70;;;5.80;;
69551;SDS011;63774;45.292;11.784;2023-07-02T00:53:46;8.70;;;6.20;;
69551;SDS011;63774;45.292;11.784;2023-07-02T00:56:13;7.80;;;6.00;;
69551;SDS011;63774;45.292;11.784;2023-07-02T00:58:40;8.60;;;5.50;;
69551;SDS011;63774;45.292;11.784;2023-07-02T01:01:18;7.30;;;5.70;;
69551;SDS011;63774;45.292;11.784;2023-07-02T01:06:30;7.90;;;5.90;;
69551;SDS011;63774;45.292;11.784;2023-07-02T01:08:58;8.00;;;5.80;;
69551;SDS011;63774;45.292;11.784;2023-07-02T01:11:26;8.00;;;5.60;;
69551;SDS011;63774;45.292;11.784;2023-07-02T01:14:16;7.10;;;5.70;;
69551;SDS011;63774;45.292;11.784;2023-07-02T01:16:45;7.70;;;6.10;;
69551;SDS011;63774;45.292;11.784;2023-07-02T01:19:18;8.00;;;6.10;;
69551;SDS011;63774;45.292;11.784;2023-07-02T01:21:47;7.50;;;5.70;;
69551;SDS011;63774;45.292;11.784;2023-07-02T01:24:14;8.20;;;6.00;;
69551;SDS011;63774;45.292;11.784;2023-07-02T01:26:39;7.50;;;6.10;;
69551;SDS011;63774;45.292;11.784;2023-07-02T01:29:15;8.10;;;5.70;;
69551;SDS011;63774;45.292;11.784;2023-07-02T01:31:41;8.50;;;6.20;;
69551;SDS011;63774;45.292;11.784;2023-07-02T01:34:07;6.90;;;5.70;;
69551;SDS011;63774;45.292;11.784;2023-07-02T01:36:34;8.50;;;5.90;;
69551;SDS011;63774;45.292;11.784;2023-07-02T01:38:59;7.60;;;5.90;;
69551;SDS011;63774;45.292;11.784;2023-07-02T01:41:25;8.90;;;6.30;;
69551;SDS011;63774;45.292;11.784;2023-07-02T01:43:50;7.80;;;5.60;;
69551;SDS011;63774;45.292;11.784;2023-07-02T01:46:16;7.60;;;5.90;;
69551;SDS011;63774;45.292;11.784;2023-07-02T01:48:41;7.70;;;5.90;;
69551;SDS011;63774;45.292;11.784;2023-07-02T01:51:06;7.80;;;5.90;;
69551;SDS011;63774;45.292;11.784;2023-07-02T01:53:32;8.00;;;5.60;;
69551;SDS011;63774;45.292;11.784;2023-07-02T01:55:57;9.00;;;6.20;;
69551;SDS011;63774;45.292;11.784;2023-07-02T01:58:23;7.30;;;5.50;;
69551;SDS011;63774;45.292;11.784;2023-07-02T02:00:48;7.60;;;5.40;;
69551;SDS011;63774;45.292;11.784;2023-07-02T02:03:14;7.70;;;5.90;;
69551;SDS011;63774;45.292;11.784;2023-07-02T02:05:40;7.30;;;5.70;;
69551;SDS011;63774;45.292;11.784;2023-07-02T02:08:05;7.80;;;6.00;;
69551;SDS011;63774;45.292;11.784;2023-07-02T02:10:31;7.60;;;5.70;;
69551;SDS011;63774;45.292;11.784;2023-07-02T02:12:56;7.40;;;5.80;;
69551;SDS011;63774;45.292;11.784;2023-07-02T02:15:21;8.10;;;6.00;;
69551;SDS011;63774;45.292;11.784;2023-07-02T02:17:47;6.90;;;5.60;;
69551;SDS011;63774;45.292;11.784;2023-07-02T02:20:12;7.00;;;5.50;;
69551;SDS011;63774;45.292;11.784;2023-07-02T02:22:38;7.50;;;5.80;;
69551;SDS011;63774;45.292;11.784;2023-07-02T02:25:03;8.10;;;6.20;;
69551;SDS011;63774;45.292;11.784;2023-07-02T02:27:29;7.30;;;5.70;;
69551;SDS011;63774;45.292;11.784;2023-07-02T02:29:54;7.80;;;6.10;;
69551;SDS011;63774;45.292;11.784;2023-07-02T02:32:20;7.50;;;5.70;;
69551;SDS011;63774;45.292;11.784;2023-07-02T02:34:46;7.30;;;5.80;;
69551;SDS011;63774;45.292;11.784;2023-07-02T02:37:12;7.00;;;5.70;;
69551;SDS011;63774;45.292;11.784;2023-07-02T02:39:37;6.80;;;5.40;;
69551;SDS011;63774;45.292;11.784;2023-07-02T02:42:03;7.00;;;5.50;;
69551;SDS011;63774;45.292;11.784;2023-07-02T02:44:29;8.10;;;5.90;;
69551;SDS011;63774;45.292;11.784;2023-07-02T02:46:54;7.50;;;5.80;;
69551;SDS011;63774;45.292;11.784;2023-07-02T02:49:20;8.30;;;6.00;;
69551;SDS011;63774;45.292;11.784;2023-07-02T02:51:45;8.80;;;5.90;;
69551;SDS011;63774;45.292;11.784;2023-07-02T02:54:11;7.70;;;5.90;;
69551;SDS011;63774;45.292;11.784;2023-07-02T02:56:36;7.90;;;5.80;;
69551;SDS011;63774;45.292;11.784;2023-07-02T02:59:01;8.10;;;6.00;;
69551;SDS011;63774;45.292;11.784;2023-07-02T03:01:27;8.50;;;5.80;;
69551;SDS011;63774;45.292;11.784;2023-07-02T03:03:57;6.90;;;5.60;;
69551;SDS011;63774;45.292;11.784;2023-07-02T03:06:24;7.50;;;5.70;;
69551;SDS011;63774;45.292;11.784;2023-07-02T03:08:49;7.70;;;5.60;;
69551;SDS011;63774;45.292;11.784;2023-07-02T03:11:15;7.00;;;5.70;;
69551;SDS011;63774;45.292;11.784;2023-07-02T03:13:40;7.90;;;5.90;;
69551;SDS011;63774;45.292;11.784;2023-07-02T03:16:05;7.70;;;5.90;;
69551;SDS011;63774;45.292;11.784;2023-07-02T03:18:31;8.70;;;6.00;;
69551;SDS011;63774;45.292;11.784;2023-07-02T03:20:57;7.40;;;5.80;;
69551;SDS011;63774;45.292;11.784;2023-07-02T03:23:23;7.60;;;5.70;;
69551;SDS011;63774;45.292;11.784;2023-07-02T03:25:48;7.70;;;5.50;;
69551;SDS011;63774;45.292;11.784;2023-07-02T03:28:14;8.90;;;5.80;;
69551;SDS011;63774;45.292;11.784;2023-07-02T03:30:39;7.80;;;5.70;;
69551;SDS011;63774;45.292;11.784;2023-07-02T03:33:05;7.50;;;5.60;;
69551;SDS011;63774;45.292;11.784;2023-07-02T03:35:30;8.60;;;5.40;;
69551;SDS011;63774;45.292;11.784;2023-07-02T03:37:56;8.70;;;5.70;;
69551;SDS011;63774;45.292;11.784;2023-07-02T03:40:22;7.50;;;5.80;;
69551;SDS011;63774;45.292;11.784;2023-07-02T03:42:48;7.80;;;5.30;;
69551;SDS011;63774;45.292;11.784;2023-07-02T03:45:13;6.80;;;5.50;;
69551;SDS011;63774;45.292;11.784;2023-07-02T03:47:39;7.40;;;5.40;;
69551;SDS011;63774;45.292;11.784;2023-07-02T03:50:04;7.90;;;5.50;;
69551;SDS011;63774;45.292;11.784;2023-07-02T03:52:30;7.20;;;5.60;;
69551;SDS011;63774;45.292;11.784;2023-07-02T03:54:55;7.60;;;5.60;;
69551;SDS011;63774;45.292;11.784;2023-07-02T03:57:21;7.40;;;5.90;;
69551;SDS011;63774;45.292;11.784;2023-07-02T03:59:46;7.20;;;5.50;;
69551;SDS011;63774;45.292;11.784;2023-07-02T04:02:11;7.00;;;5.40;;
69551;SDS011;63774;45.292;11.784;2023-07-02T04:04:37;7.90;;;5.60;;
69551;SDS011;63774;45.292;11.784;2023-07-02T04:07:02;8.80;;;5.80;;
69551;SDS011;63774;45.292;11.784;2023-07-02T04:09:27;7.50;;;5.80;;
69551;SDS011;63774;45.292;11.784;2023-07-02T04:11:53;7.90;;;5.50;;
69551;SDS011;63774;45.292;11.784;2023-07-02T04:14:18;8.30;;;5.70;;
69551;SDS011;63774;45.292;11.784;2023-07-02T04:16:44;8.10;;;5.80;;
69551;SDS011;63774;45.292;11.784;2023-07-02T04:19:10;7.60;;;5.80;;
69551;SDS011;63774;45.292;11.784;2023-07-02T04:21:36;7.90;;;5.60;;
69551;SDS011;63774;45.292;11.784;2023-07-02T04:24:01;6.50;;;5.30;;
69551;SDS011;63774;45.292;11.784;2023-07-02T04:26:27;7.50;;;5.60;;
69551;SDS011;63774;45.292;11.784;2023-07-02T04:28:53;7.50;;;5.70;;
69551;SDS011;63774;45.292;11.784;2023-07-02T04:31:20;7.80;;;5.90;;
69551;SDS011;63774;45.292;11.784;2023-07-02T04:33:45;6.70;;;5.30;;
69551;SDS011;63774;45.292;11.784;2023-07-02T04:36:11;7.20;;;5.40;;
69551;SDS011;63774;45.292;11.784;2023-07-02T04:38:37;7.30;;;5.60;;
69551;SDS011;63774;45.292;11.784;2023-07-02T04:41:04;7.40;;;5.40;;
69551;SDS011;63774;45.292;11.784;2023-07-02T04:43:30;7.20;;;5.90;;
69551;SDS011;63774;45.292;11.784;2023-07-02T04:45:59;7.50;;;5.40;;
69551;SDS011;63774;45.292;11.784;2023-07-02T04:48:24;7.70;;;5.70;;
69551;SDS011;63774;45.292;11.784;2023-07-02T04:50:50;7.80;;;5.70;;
69551;SDS011;63774;45.292;11.784;2023-07-02T04:53:15;9.10;;;5.90;;
69551;SDS011;63774;45.292;11.784;2023-07-02T04:55:41;8.20;;;6.00;;
69551;SDS011;63774;45.292;11.784;2023-07-02T04:58:07;7.60;;;6.00;;
69551;SDS011;63774;45.292;11.784;2023-07-02T05:00:32;8.00;;;6.30;;
69551;SDS011;63774;45.292;11.784;2023-07-02T05:02:57;7.80;;;5.40;;
69551;SDS011;63774;45.292;11.784;2023-07-02T05:05:23;8.20;;;5.70;;
69551;SDS011;63774;45.292;11.784;2023-07-02T05:07:49;7.30;;;5.60;;
69551;SDS011;63774;45.292;11.784;2023-07-02T05:10:14;7.90;;;6.10;;
69551;SDS011;63774;45.292;11.784;2023-07-02T05:12:40;7.00;;;5.80;;
69551;SDS011;63774;45.292;11.784;2023-07-02T05:15:05;8.40;;;5.80;;
69551;SDS011;63774;45.292;11.784;2023-07-02T05:17:31;6.80;;;5.40;;
69551;SDS011;63774;45.292;11.784;2023-07-02T05:19:59;7.60;;;5.90;;
69551;SDS011;63774;45.292;11.784;2023-07-02T05:22:26;7.90;;;5.90;;
69551;SDS011;63774;45.292;11.784;2023-07-02T05:24:51;7.50;;;5.20;;
69551;SDS011;63774;45.292;11.784;2023-07-02T05:27:16;7.40;;;6.10;;
69551;SDS011;63774;45.292;11.784;2023-07-02T05:29:42;7.30;;;5.30;;
69551;SDS011;63774;45.292;11.784;2023-07-02T05:32:08;7.30;;;5.60;;
69551;SDS011;63774;45.292;11.784;2023-07-02T05:34:34;8.00;;;5.50;;
69551;SDS011;63774;45.292;11.784;2023-07-02T05:36:59;8.70;;;6.20;;
69551;SDS011;63774;45.292;11.784;2023-07-02T05:39:25;7.20;;;5.70;;
69551;SDS011;63774;45.292;11.784;2023-07-02T05:41:50;8.10;;;5.60;;
69551;SDS011;63774;45.292;11.784;2023-07-02T05:44:16;8.90;;;6.00;;
69551;SDS011;63774;45.292;11.784;2023-07-02T05:46:41;7.90;;;5.90;;
69551;SDS011;63774;45.292;11.784;2023-07-02T05:49:07;7.80;;;6.10;;
69551;SDS011;63774;45.292;11.784;2023-07-02T05:51:33;8.00;;;5.80;;
69551;SDS011;63774;45.292;11.784;2023-07-02T05:53:58;7.00;;;5.70;;
69551;SDS011;63774;45.292;11.784;2023-07-02T05:56:24;7.20;;;5.50;;
69551;SDS011;63774;45.292;11.784;2023-07-02T05:58:49;8.60;;;6.10;;
69551;SDS011;63774;45.292;11.784;2023-07-02T06:01:15;8.60;;;5.70;;
69551;SDS011;63774;45.292;11.784;2023-07-02T06:03:40;8.60;;;6.20;;
69551;SDS011;63774;45.292;11.784;2023-07-02T06:06:07;7.60;;;5.90;;
69551;SDS011;63774;45.292;11.784;2023-07-02T06:08:32;9.00;;;6.60;;
69551;SDS011;63774;45.292;11.784;2023-07-02T06:10:58;8.00;;;5.90;;
69551;SDS011;63774;45.292;11.784;2023-07-02T06:13:23;7.40;;;5.70;;
69551;SDS011;63774;45.292;11.784;2023-07-02T06:15:48;7.90;;;5.70;;
69551;SDS011;63774;45.292;11.784;2023-07-02T06:18:14;8.30;;;6.30;;
69551;SDS011;63774;45.292;11.784;2023-07-02T06:20:39;8.40;;;5.90;;
69551;SDS011;63774;45.292;11.784;2023-07-02T06:23:05;7.80;;;6.00;;
69551;SDS011;63774;45.292;11.784;2023-07-02T06:25:30;8.20;;;6.00;;
69551;SDS011;63774;45.292;11.784;2023-07-02T06:27:56;8.50;;;6.20;;
69551;SDS011;63774;45.292;11.784;2023-07-02T06:30:23;8.30;;;6.20;;
69551;SDS011;63774;45.292;11.784;2023-07-02T06:32:49;8.90;;;6.30;;
69551;SDS011;63774;45.292;11.784;2023-07-02T06:35:14;8.20;;;5.70;;
69551;SDS011;63774;45.292;11.784;2023-07-02T06:37:40;8.40;;;6.00;;
69551;SDS011;63774;45.292;11.784;2023-07-02T06:40:05;8.60;;;6.10;;
69551;SDS011;63774;45.292;11.784;2023-07-02T06:42:31;8.70;;;6.40;;
69551;SDS011;63774;45.292;11.784;2023-07-02T06:44:58;8.20;;;6.10;;
69551;SDS011;63774;45.292;11.784;2023-07-02T06:47:23;8.60;;;6.10;;
69551;SDS011;63774;45.292;11.784;2023-07-02T06:49:48;7.60;;;5.90;;
69551;SDS011;63774;45.292;11.784;2023-07-02T06:52:14;9.00;;;6.20;;
69551;SDS011;63774;45.292;11.784;2023-07-02T06:54:39;9.30;;;6.30;;
69551;SDS011;63774;45.292;11.784;2023-07-02T06:57:05;10.30;;;6.60;;
69551;SDS011;63774;45.292;11.784;2023-07-02T06:59:30;8.60;;;5.90;;
69551;SDS011;63774;45.292;11.784;2023-07-02T07:01:56;8.10;;;6.10;;
69551;SDS011;63774;45.292;11.784;2023-07-02T07:04:21;9.60;;;6.40;;
69551;SDS011;63774;45.292;11.784;2023-07-02T07:06:47;9.50;;;6.20;;
69551;SDS011;63774;45.292;11.784;2023-07-02T07:09:12;8.30;;;6.10;;
69551;SDS011;63774;45.292;11.784;2023-07-02T07:11:37;8.70;;;6.00;;
69551;SDS011;63774;45.292;11.784;2023-07-02T07:14:03;8.10;;;5.90;;
69551;SDS011;63774;45.292;11.784;2023-07-02T07:16:28;8.80;;;6.50;;
69551;SDS011;63774;45.292;11.784;2023-07-02T07:18:54;10.30;;;6.60;;
69551;SDS011;63774;45.292;11.784;2023-07-02T07:21:19;9.50;;;6.40;;
69551;SDS011;63774;45.292;11.784;2023-07-02T07:23:45;8.90;;;6.30;;
69551;SDS011;63774;45.292;11.784;2023-07-02T07:26:10;8.70;;;5.70;;
69551;SDS011;63774;45.292;11.784;2023-07-02T07:28:35;8.80;;;6.30;;
69551;SDS011;63774;45.292;11.784;2023-07-02T07:31:01;7.90;;;5.80;;
69551;SDS011;63774;45.292;11.784;2023-07-02T07:33:27;8.30;;;5.90;;
69551;SDS011;63774;45.292;11.784;2023-07-02T07:35:52;9.10;;;6.10;;
69551;SDS011;63774;45.292;11.784;2023-07-02T07:38:18;8.50;;;5.70;;
69551;SDS011;63774;45.292;11.784;2023-07-02T07:40:43;8.10;;;5.50;;
69551;SDS011;63774;45.292;11.784;2023-07-02T07:43:09;8.60;;;6.00;;
69551;SDS011;63774;45.292;11.784;2023-07-02T07:45:34;7.70;;;5.80;;
69551;SDS011;63774;45.292;11.784;2023-07-02T07:48:00;7.10;;;5.60;;
69551;SDS011;63774;45.292;11.784;2023-07-02T07:50:26;8.40;;;5.90;;
69551;SDS011;63774;45.292;11.784;2023-07-02T07:52:51;8.90;;;6.00;;
69551;SDS011;63774;45.292;11.784;2023-07-02T07:55:17;7.60;;;6.10;;
69551;SDS011;63774;45.292;11.784;2023-07-02T07:57:42;8.00;;;5.40;;
69551;SDS011;63774;45.292;11.784;2023-07-02T08:00:08;7.70;;;5.20;;
69551;SDS011;63774;45.292;11.784;2023-07-02T08:02:37;7.60;;;5.60;;
69551;SDS011;63774;45.292;11.784;2023-07-02T08:05:03;7.10;;;5.50;;
69551;SDS011;63774;45.292;11.784;2023-07-02T08:07:32;7.80;;;5.80;;
69551;SDS011;63774;45.292;11.784;2023-07-02T08:09:58;8.10;;;5.80;;
69551;SDS011;63774;45.292;11.784;2023-07-02T08:12:24;7.60;;;5.60;;
69551;SDS011;63774;45.292;11.784;2023-07-02T08:14:52;8.40;;;5.70;;
69551;SDS011;63774;45.292;11.784;2023-07-02T08:17:17;7.90;;;5.90;;
69551;SDS011;63774;45.292;11.784;2023-07-02T08:19:43;9.00;;;5.40;;
69551;SDS011;63774;45.292;11.784;2023-07-02T08:22:08;7.70;;;5.60;;
69551;SDS011;63774;45.292;11.784;2023-07-02T08:24:33;8.10;;;5.90;;
69551;SDS011;63774;45.292;11.784;2023-07-02T08:26:59;7.90;;;5.40;;
69551;SDS011;63774;45.292;11.784;2023-07-02T08:29:26;8.70;;;5.90;;
69551;SDS011;63774;45.292;11.784;2023-07-02T08:31:51;8.60;;;5.80;;
69551;SDS011;63774;45.292;11.784;2023-07-02T08:34:17;6.90;;;5.50;;
69551;SDS011;63774;45.292;11.784;2023-07-02T08:36:42;7.60;;;5.60;;
69551;SDS011;63774;45.292;11.784;2023-07-02T08:39:08;8.50;;;5.90;;
69551;SDS011;63774;45.292;11.784;2023-07-02T08:41:47;7.90;;;5.80;;
69551;SDS011;63774;45.292;11.784;2023-07-02T08:44:20;6.90;;;5.40;;
69551;SDS011;63774;45.292;11.784;2023-07-02T08:46:47;7.20;;;5.60;;
69551;SDS011;63774;45.292;11.784;2023-07-02T08:49:15;8.30;;;5.40;;
69551;SDS011;63774;45.292;11.784;2023-07-02T08:51:44;6.90;;;5.30;;
69551;SDS011;63774;45.292;11.784;2023-07-02T08:54:10;8.50;;;6.00;;
69551;SDS011;63774;45.292;11.784;2023-07-02T08:56:35;6.70;;;5.20;;
69551;SDS011;63774;45.292;11.784;2023-07-02T08:59:01;8.70;;;6.10;;
69551;SDS011;63774;45.292;11.784;2023-07-02T09:01:26;7.50;;;5.70;;
69551;SDS011;63774;45.292;11.784;2023-07-02T09:03:57;8.20;;;6.00;;
69551;SDS011;63774;45.292;11.784;2023-07-02T09:06:25;7.90;;;6.10;;
69551;SDS011;63774;45.292;11.784;2023-07-02T09:08:50;7.80;;;5.70;;
69551;SDS011;63774;45.292;11.784;2023-07-02T09:11:15;9.10;;;6.30;;
69551;SDS011;63774;45.292;11.784;2023-07-02T09:18:56;8.90;;;6.60;;
69551;SDS011;63774;45.292;11.784;2023-07-02T09:24:19;9.10;;;6.80;;
69551;SDS011;63774;45.292;11.784;2023-07-02T09:26:49;10.40;;;6.60;;
69551;SDS011;63774;45.292;11.784;2023-07-02T09:29:33;9.70;;;7.10;;
69551;SDS011;63774;45.292;11.784;2023-07-02T09:32:08;8.80;;;6.70;;
69551;SDS011;63774;45.292;11.784;2023-07-02T09:34:34;8.40;;;6.20;;
69551;SDS011;63774;45.292;11.784;2023-07-02T09:37:01;8.70;;;6.80;;
69551;SDS011;63774;45.292;11.784;2023-07-02T09:39:31;9.00;;;6.80;;
69551;SDS011;63774;45.292;11.784;2023-07-02T09:41:59;8.80;;;7.30;;
69551;SDS011;63774;45.292;11.784;2023-07-02T09:44:30;10.10;;;7.00;;
69551;SDS011;63774;45.292;11.784;2023-07-02T09:47:09;8.70;;;7.10;;
69551;SDS011;63774;45.292;11.784;2023-07-02T09:49:37;9.40;;;7.20;;
69551;SDS011;63774;45.292;11.784;2023-07-02T09:52:07;10.10;;;7.20;;
69551;SDS011;63774;45.292;11.784;2023-07-02T09:54:34;10.50;;;7.20;;
69551;SDS011;63774;45.292;11.784;2023-07-02T09:57:00;9.60;;;7.10;;
69551;SDS011;63774;45.292;11.784;2023-07-02T09:59:26;10.90;;;7.50;;
69551;SDS011;63774;45.292;11.784;2023-07-02T10:01:52;8.50;;;7.20;;
69551;SDS011;63774;45.292;11.784;2023-07-02T10:04:18;7.90;;;6.80;;
69551;SDS011;63774;45.292;11.784;2023-07-02T10:09:15;9.90;;;7.50;;
69551;SDS011;63774;45.292;11.784;2023-07-02T10:11:44;9.80;;;7.30;;
69551;SDS011;63774;45.292;11.784;2023-07-02T10:14:10;8.20;;;7.00;;
69551;SDS011;63774;45.292;11.784;2023-07-02T10:16:52;10.50;;;7.40;;
69551;SDS011;63774;45.292;11.784;2023-07-02T10:19:18;10.10;;;7.00;;
69551;SDS011;63774;45.292;11.784;2023-07-02T10:21:44;9.20;;;7.10;;
69551;SDS011;63774;45.292;11.784;2023-07-02T10:24:15;8.30;;;6.60;;
69551;SDS011;63774;45.292;11.784;2023-07-02T10:29:37;10.00;;;7.60;;
69551;SDS011;63774;45.292;11.784;2023-07-02T10:32:03;9.30;;;7.10;;
69551;SDS011;63774;45.292;11.784;2023-07-02T10:34:33;9.40;;;6.60;;
69551;SDS011;63774;45.292;11.784;2023-07-02T10:37:00;9.50;;;7.00;;
69551;SDS011;63774;45.292;11.784;2023-07-02T10:39:28;9.30;;;6.60;;
69551;SDS011;63774;45.292;11.784;2023-07-02T10:42:07;8.40;;;6.70;;
69551;SDS011;63774;45.292;11.784;2023-07-02T10:44:35;11.00;;;7.40;;
69551;SDS011;63774;45.292;11.784;2023-07-02T10:47:12;9.60;;;6.80;;
69551;SDS011;63774;45.292;11.784;2023-07-02T10:49:39;9.60;;;7.20;;
69551;SDS011;63774;45.292;11.784;2023-07-02T10:52:04;9.60;;;7.10;;
69551;SDS011;63774;45.292;11.784;2023-07-02T10:54:42;9.60;;;7.20;;
69551;SDS011;63774;45.292;11.784;2023-07-02T10:57:08;9.30;;;7.30;;
69551;SDS011;63774;45.292;11.784;2023-07-02T10:59:34;8.60;;;7.20;;
69551;SDS011;63774;45.292;11.784;2023-07-02T11:02:00;8.90;;;6.80;;
69551;SDS011;63774;45.292;11.784;2023-07-02T11:04:28;8.50;;;7.10;;
69551;SDS011;63774;45.292;11.784;2023-07-02T11:06:54;9.40;;;7.20;;
69551;SDS011;63774;45.292;11.784;2023-07-02T11:09:20;8.40;;;7.00;;
69551;SDS011;63774;45.292;11.784;2023-07-02T11:11:59;8.90;;;7.20;;
69551;SDS011;63774;45.292;11.784;2023-07-02T11:14:29;10.10;;;6.90;;
69551;SDS011;63774;45.292;11.784;2023-07-02T11:16:59;7.80;;;6.80;;
69551;SDS011;63774;45.292;11.784;2023-07-02T11:19:28;8.80;;;7.20;;
69551;SDS011;63774;45.292;11.784;2023-07-02T11:21:54;10.00;;;7.20;;
69551;SDS011;63774;45.292;11.784;2023-07-02T11:24:41;9.60;;;7.40;;
69551;SDS011;63774;45.292;11.784;2023-07-02T11:27:06;8.00;;;6.90;;
69551;SDS011;63774;45.292;11.784;2023-07-02T11:29:33;8.10;;;7.00;;
69551;SDS011;63774;45.292;11.784;2023-07-02T11:32:06;8.80;;;7.00;;
69551;SDS011;63774;45.292;11.784;2023-07-02T11:34:32;9.20;;;7.10;;
69551;SDS011;63774;45.292;11.784;2023-07-02T11:36:58;9.20;;;7.10;;
69551;SDS011;63774;45.292;11.784;2023-07-02T11:39:23;9.80;;;6.90;;
69551;SDS011;63774;45.292;11.784;2023-07-02T11:41:49;8.70;;;7.10;;
69551;SDS011;63774;45.292;11.784;2023-07-02T11:44:15;9.10;;;7.40;;
69551;SDS011;63774;45.292;11.784;2023-07-02T11:46:41;10.80;;;6.90;;
69551;SDS011;63774;45.292;11.784;2023-07-02T11:49:06;9.20;;;6.90;;
69551;SDS011;63774;45.292;11.784;2023-07-02T11:51:38;8.30;;;7.10;;
69551;SDS011;63774;45.292;11.784;2023-07-02T11:54:04;7.30;;;6.50;;
69551;SDS011;63774;45.292;11.784;2023-07-02T11:56:30;9.20;;;7.60;;
69551;SDS011;63774;45.292;11.784;2023-07-02T11:58:56;9.70;;;7.00;;
69551;SDS011;63774;45.292;11.784;2023-07-02T12:01:21;8.40;;;7.00;;
69551;SDS011;63774;45.292;11.784;2023-07-02T12:03:47;9.60;;;6.90;;
69551;SDS011;63774;45.292;11.784;2023-07-02T12:06:12;8.90;;;7.00;;
69551;SDS011;63774;45.292;11.784;2023-07-02T12:08:38;9.70;;;7.20;;
69551;SDS011;63774;45.292;11.784;2023-07-02T12:11:03;8.70;;;7.40;;
69551;SDS011;63774;45.292;11.784;2023-07-02T12:13:29;8.60;;;6.90;;
69551;SDS011;63774;45.292;11.784;2023-07-02T12:15:54;9.10;;;7.60;;
69551;SDS011;63774;45.292;11.784;2023-07-02T12:18:20;9.60;;;6.90;;
69551;SDS011;63774;45.292;11.784;2023-07-02T12:20:45;9.80;;;7.10;;
69551;SDS011;63774;45.292;11.784;2023-07-02T12:23:11;8.90;;;6.80;;
69551;SDS011;63774;45.292;11.784;2023-07-02T12:25:36;9.40;;;7.00;;
69551;SDS011;63774;45.292;11.784;2023-07-02T12:28:03;9.10;;;7.20;;
69551;SDS011;63774;45.292;11.784;2023-07-02T12:30:29;8.70;;;7.30;;
69551;SDS011;63774;45.292;11.784;2023-07-02T12:32:54;8.50;;;6.80;;
69551;SDS011;63774;45.292;11.784;2023-07-02T12:35:20;7.90;;;7.00;;
69551;SDS011;63774;45.292;11.784;2023-07-02T12:37:46;8.70;;;6.40;;
69551;SDS011;63774;45.292;11.784;2023-07-02T12:40:14;8.30;;;6.90;;
69551;SDS011;63774;45.292;11.784;2023-07-02T12:42:42;8.60;;;7.00;;
69551;SDS011;63774;45.292;11.784;2023-07-02T12:45:09;8.50;;;6.70;;
69551;SDS011;63774;45.292;11.784;2023-07-02T12:47:36;8.90;;;6.80;;
69551;SDS011;63774;45.292;11.784;2023-07-02T12:50:02;7.30;;;6.10;;
69551;SDS011;63774;45.292;11.784;2023-07-02T12:52:29;8.00;;;6.40;;
69551;SDS011;63774;45.292;11.784;2023-07-02T12:54:55;8.60;;;6.90;;
69551;SDS011;63774;45.292;11.784;2023-07-02T12:57:20;7.20;;;6.30;;
69551;SDS011;63774;45.292;11.784;2023-07-02T12:59:45;7.80;;;6.40;;
69551;SDS011;63774;45.292;11.784;2023-07-02T13:02:11;8.20;;;6.60;;
69551;SDS011;63774;45.292;11.784;2023-07-02T13:04:36;8.70;;;6.50;;
69551;SDS011;63774;45.292;11.784;2023-07-02T13:07:03;8.60;;;6.60;;
69551;SDS011;63774;45.292;11.784;2023-07-02T13:09:28;9.20;;;6.40;;
69551;SDS011;63774;45.292;11.784;2023-07-02T13:11:54;9.20;;;6.80;;
69551;SDS011;63774;45.292;11.784;2023-07-02T13:14:19;7.80;;;6.70;;
69551;SDS011;63774;45.292;11.784;2023-07-02T13:16:45;8.10;;;6.00;;
69551;SDS011;63774;45.292;11.784;2023-07-02T13:19:10;9.10;;;6.50;;
69551;SDS011;63774;45.292;11.784;2023-07-02T13:21:36;7.20;;;6.00;;
69551;SDS011;63774;45.292;11.784;2023-07-02T13:24:02;7.40;;;6.30;;
69551;SDS011;63774;45.292;11.784;2023-07-02T13:26:28;8.10;;;6.10;;
69551;SDS011;63774;45.292;11.784;2023-07-02T13:28:53;8.40;;;6.20;;
69551;SDS011;63774;45.292;11.784;2023-07-02T13:31:18;7.70;;;6.30;;
69551;SDS011;63774;45.292;11.784;2023-07-02T13:33:44;7.40;;;6.10;;
69551;SDS011;63774;45.292;11.784;2023-07-02T13:36:11;7.70;;;6.20;;
69551;SDS011;63774;45.292;11.784;2023-07-02T13:38:36;7.60;;;6.10;;
69551;SDS011;63774;45.292;11.784;2023-07-02T13:41:02;7.80;;;6.40;;
69551;SDS011;63774;45.292;11.784;2023-07-02T13:43:28;8.40;;;6.50;;
69551;SDS011;63774;45.292;11.784;2023-07-02T13:45:54;8.00;;;6.20;;
69551;SDS011;63774;45.292;11.784;2023-07-02T13:48:19;7.60;;;5.90;;
69551;SDS011;63774;45.292;11.784;2023-07-02T13:50:45;8.10;;;6.10;;
69551;SDS011;63774;45.292;11.784;2023-07-02T13:53:10;8.50;;;6.30;;
69551;SDS011;63774;45.292;11.784;2023-07-02T13:55:35;8.00;;;6.30;;
69551;SDS011;63774;45.292;11.784;2023-07-02T13:58:01;8.40;;;6.40;;
69551;SDS011;63774;45.292;11.784;2023-07-02T14:00:27;8.70;;;6.10;;
69551;SDS011;63774;45.292;11.784;2023-07-02T14:02:53;8.50;;;6.30;;
69551;SDS011;63774;45.292;11.784;2023-07-02T14:05:19;8.40;;;6.70;;
69551;SDS011;63774;45.292;11.784;2023-07-02T14:07:45;9.00;;;6.60;;
69551;SDS011;63774;45.292;11.784;2023-07-02T14:10:10;7.60;;;6.10;;
69551;SDS011;63774;45.292;11.784;2023-07-02T14:12:37;9.00;;;6.20;;
69551;SDS011;63774;45.292;11.784;2023-07-02T14:15:03;7.60;;;6.10;;
69551;SDS011;63774;45.292;11.784;2023-07-02T14:17:29;8.70;;;6.40;;
69551;SDS011;63774;45.292;11.784;2023-07-02T14:19:54;19.30;;;8.60;;
69551;SDS011;63774;45.292;11.784;2023-07-02T14:22:20;30.00;;;10.10;;
69551;SDS011;63774;45.292;11.784;2023-07-02T14:24:45;22.80;;;8.60;;
69551;SDS011;63774;45.292;11.784;2023-07-02T14:27:11;32.10;;;10.30;;
69551;SDS011;63774;45.292;11.784;2023-07-02T14:29:36;23.10;;;9.60;;
69551;SDS011;63774;45.292;11.784;2023-07-02T14:32:02;24.90;;;9.40;;
69551;SDS011;63774;45.292;11.784;2023-07-02T14:34:28;23.20;;;8.80;;
69551;SDS011;63774;45.292;11.784;2023-07-02T14:36:55;22.20;;;9.70;;
69551;SDS011;63774;45.292;11.784;2023-07-02T14:39:21;21.40;;;8.80;;
69551;SDS011;63774;45.292;11.784;2023-07-02T14:41:47;24.90;;;9.20;;
69551;SDS011;63774;45.292;11.784;2023-07-02T14:44:13;18.10;;;8.80;;